Terminal Aerodrome Forecast
Issued by NWS

Home | Current Version | Previous Version | Text Only | Print | Product List | Glossary On
Versions: 1 2 3 4 5 6 7 8 9 10 11 12 13 14 15 16 17 18 19 20 21 22 23 24 25 26 27 28 29
000
FTUS41 KBTV 082320
TAFPBG
TAF
KPBG 082320Z 0900/0924 01008KT P6SM OVC035
     FM090400 02007KT 4SM -SN BR OVC020
     FM091200 05004KT P6SM VCSH OVC050=

USA.gov is the U.S. government's official web portal to all federal, state and local government web resources and services.